Willoughby, OH (44095)

1:28 AM EST on February 09, 2016 (GMT -0500)
Rt. 91 and Stevens Blvd | | Change Station
CLOSE
Current Station
Personal Weather Station
Location: Eastlake, OH
Elevation: 623 ft
Nearby Weather Stations

Elev 623 ft 41.65 °N, 81.44 °W | Updated 14 minutes ago

Snow
Snow
32.5 °F
Feels Like 32 °F
N
2.2
Wind Variable Wind from SSE

Today
High -- | Low -- °F
--% Chance of Precip.
Yesterday
High -- | Low -- °F
Precip. -- in
Pressure 29.58 in
Visibility 2.5 miles
Clouds Overcast 400 ft
Windchill 32 °F
Dew Point 32 °F
Humidity 99%
Rainfall 0.01 in
Snow Depth Not available.
7:29 AM 5:51 PM
New Moon, 1% visible
METAR KCGF 090345Z 24006KT 2 1/2SM -SN BR OVC004 01/00 A2958
Pressure 29.58 in
Visibility 2.5 miles
Clouds Overcast 400 ft
Windchill 32 °F
Dew Point 32 °F
Humidity 99%
Rainfall 0.01 in
Snow Depth Not available.
7:29 AM 5:51 PM
New Moon, 1% visible
METAR KCGF 090345Z 24006KT 2 1/2SM -SN BR OVC004 01/00 A2958

10-Day Weather Forecast

Almanac

Astronomy

Feb. 09, 2016 Rise Set
Actual Time
Civil Twilight
Nautical Twilight
Astronomical Twilight
Moon
Length of Visible Light
Length of Day
Tomorrow will be .
, % of the Moon is Illuminated

Today's Extremes

State Highs State Lows

Community

WunderPhotos

Upload Photos

1,891,571 photos uploaded!

WunderBlog® & News

Nearby

Air Quality

  Air Quality AQ Index Pollutant
Not available.

Snow Depth

Station Depth Elevation

Earthquake Activity

City Distance Mag. Time & Date
Minimum magnitude displayed is 2.5.

Coastal Water Temperatures

Place Temperature

Stations

Nearby Weather Stations

Station Location Temp. Windchill Dew Point Humidity Wind Precip. Elev Updated Type
                   

Watches & Warnings

There are currently no watches in effect.